Time;durP1;ratioP1;P1;durP2;ratioP2;P2;SDS_P1;SDS_P2;PMS_P1;PMS_P2;Temp;Humidity;BMP_temperature;BMP_pressure;BME280_temperature;BME280_humidity;BME280_pressure;Samples;Min_cycle;Max_cycle;Signal;HPM_P1;HPM_P2
2022/05/27 00:00:17;;;;;;;12.70;2.50;;;15.50;99.90;;;;;;5072699;28;20036;-73
2022/05/27 00:02:43;;;;;;;9.63;2.22;;;15.50;99.90;;;;;;5073455;28;20095;-83
2022/05/27 00:05:10;;;;;;;16.23;3.28;;;15.40;99.90;;;;;;5092819;28;20539;-76
2022/05/27 00:07:35;;;;;;;12.25;2.95;;;15.60;99.90;;;;;;5091429;28;20392;-75
2022/05/27 00:10:01;;;;;;;14.27;2.20;;;15.50;99.90;;;;;;5096711;28;20032;-76
2022/05/27 00:12:27;;;;;;;10.23;2.40;;;15.50;99.90;;;;;;5097084;28;20036;-74
2022/05/27 00:14:53;;;;;;;13.20;3.47;;;15.60;99.90;;;;;;5095549;28;20030;-73
2022/05/27 00:17:18;;;;;;;8.85;2.40;;;15.70;99.90;;;;;;5095808;28;20111;-79
2022/05/27 00:19:44;;;;;;;9.45;2.80;;;15.70;99.90;;;;;;5095626;28;20107;-76
2022/05/27 00:22:10;;;;;;;13.00;3.78;;;15.70;99.90;;;;;;5096643;28;20040;-72
2022/05/27 00:24:36;;;;;;;12.60;2.63;;;15.60;99.90;;;;;;5096853;28;20040;-75
2022/05/27 00:27:02;;;;;;;17.95;2.78;;;15.50;99.90;;;;;;5095867;28;20115;-72
2022/05/27 00:29:28;;;;;;;11.77;2.75;;;15.40;99.90;;;;;;5095447;28;20028;-73
2022/05/27 00:31:54;;;;;;;21.13;3.20;;;15.60;99.90;;;;;;5096587;28;20028;-83
2022/05/27 00:34:20;;;;;;;18.17;3.25;;;15.80;99.90;;;;;;5096573;28;20067;-82
2022/05/27 00:36:46;;;;;;;16.25;4.10;;;15.70;99.90;;;;;;5095361;28;20055;-83
2022/05/27 00:39:12;;;;;;;17.23;3.55;;;15.60;99.90;;;;;;5097250;28;20028;-81
2022/05/27 00:41:40;;;;;;;15.30;3.42;;;15.60;99.90;;;;;;5097359;28;20028;-84
2022/05/27 00:44:06;;;;;;;16.25;3.55;;;15.50;99.90;;;;;;5095725;28;20033;-83
2022/05/27 00:46:34;;;;;;;20.45;3.42;;;15.60;99.90;;;;;;5097676;28;20479;-84
2022/05/27 00:49:13;;;;;;;12.52;3.50;;;15.60;99.90;;;;;;5091165;28;20050;-86
2022/05/27 00:51:54;;;;;;;18.65;3.65;;;15.60;99.90;;;;;;5075916;28;20040;-84
2022/05/27 00:54:23;;;;;;;11.60;2.70;;;15.60;99.90;;;;;;5075841;28;20425;-84
2022/05/27 00:57:00;;;;;;;14.23;3.20;;;15.60;99.90;;;;;;5074692;28;20020;-84
2022/05/27 00:59:45;;;;;;;21.02;3.45;;;15.70;99.90;;;;;;5075714;28;20477;-85
2022/05/27 01:02:11;;;;;;;16.55;3.25;;;15.80;99.90;;;;;;5074658;28;20032;-83
2022/05/27 01:04:37;;;;;;;13.07;2.72;;;15.80;99.90;;;;;;5090413;28;20461;-83
2022/05/27 01:07:04;;;;;;;17.85;3.72;;;15.60;99.90;;;;;;5094751;28;20020;-83
2022/05/27 01:09:30;;;;;;;19.20;3.22;;;15.50;99.90;;;;;;5095684;28;20032;-83
2022/05/27 01:12:05;;;;;;;18.05;3.33;;;15.60;99.90;;;;;;5095919;28;20074;-83
2022/05/27 01:14:43;;;;;;;12.63;3.65;;;15.50;99.90;;;;;;5094360;28;20101;-83
2022/05/27 01:17:21;;;;;;;10.90;3.95;;;15.60;99.90;;;;;;5094520;28;20032;-83
2022/05/27 01:20:20;;;;;;;16.88;3.53;;;15.60;99.90;;;;;;5093787;28;20068;-84
2022/05/27 01:22:59;;;;;;;15.35;3.78;;;15.70;99.90;;;;;;5095720;28;20044;-83
2022/05/27 01:25:25;;;;;;;18.48;4.05;;;15.90;99.90;;;;;;5095599;28;20107;-84
2022/05/27 01:28:12;;;;;;;18.55;3.75;;;15.90;99.90;;;;;;5095851;28;20099;-85
2022/05/27 01:30:58;;;;;;;13.60;3.28;;;16.00;99.90;;;;;;5095304;28;20380;-81
2022/05/27 01:33:56;;;;;;;16.23;3.95;;;15.80;99.90;;;;;;5095637;28;20032;-84
2022/05/27 01:36:38;;;;;;;22.55;4.68;;;15.70;99.90;;;;;;5095208;28;20384;-83
2022/05/27 01:39:22;;;;;;;13.52;2.83;;;15.80;99.90;;;;;;5095467;28;20540;-84
2022/05/27 01:41:59;;;;;;;17.55;3.97;;;15.90;99.90;;;;;;5094017;28;20036;-84
2022/05/27 01:44:27;;;;;;;17.45;4.05;;;16.00;99.90;;;;;;5095311;28;20350;-84
2022/05/27 01:46:55;;;;;;;18.63;3.88;;;15.80;99.90;;;;;;5095601;28;20532;-85
2022/05/27 01:49:56;;;;;;;20.40;4.03;;;15.90;99.90;;;;;;5085491;28;20389;-84
2022/05/27 01:52:38;;;;;;;17.80;4.13;;;15.80;99.90;;;;;;5052211;28;20131;-84
2022/05/27 01:55:08;;;;;;;17.60;4.68;;;15.80;99.90;;;;;;5074970;28;20040;-84
2022/05/27 01:57:42;;;;;;;21.15;5.13;;;15.70;99.90;;;;;;5074710;28;20020;-83
2022/05/27 02:00:11;;;;;;;20.80;5.57;;;15.60;99.90;;;;;;5074695;28;20024;-83
2022/05/27 02:02:50;;;;;;;20.75;5.88;;;15.60;99.90;;;;;;5073238;28;20388;-84
2022/05/27 02:05:31;;;;;;;21.20;5.32;;;15.60;99.90;;;;;;5074599;28;20020;-84
2022/05/27 02:08:02;;;;;;;25.97;5.33;;;15.60;99.90;;;;;;5074488;28;20089;-84
2022/05/27 02:10:43;;;;;;;18.10;5.93;;;15.60;99.90;;;;;;5074848;28;20751;-83
2022/05/27 02:13:20;;;;;;;22.52;5.65;;;15.70;99.90;;;;;;5074570;28;20095;-84
2022/05/27 02:15:49;;;;;;;22.52;5.75;;;15.90;99.90;;;;;;5074187;28;20032;-83
2022/05/27 02:18:39;;;;;;;27.30;8.10;;;16.00;99.90;;;;;;5074158;28;20381;-84
2022/05/27 02:21:10;;;;;;;23.92;5.57;;;16.10;99.90;;;;;;5073065;28;20098;-84
2022/05/27 02:23:45;;;;;;;25.83;6.05;;;15.60;99.90;;;;;;5092050;28;20103;-84
2022/05/27 02:26:16;;;;;;;26.45;5.75;;;15.50;99.90;;;;;;5093264;28;20069;-84
2022/05/27 02:28:46;;;;;;;25.27;6.80;;;15.70;99.90;;;;;;5080988;28;20023;-82
2022/05/27 02:31:21;;;;;;;25.98;5.97;;;15.90;99.90;;;;;;5073303;28;20492;-83
2022/05/27 02:36:44;;;;;;;33.50;7.53;;;15.80;99.90;;;;;;5072621;28;20036;-83
2022/05/27 02:39:10;;;;;;;27.08;6.75;;;15.90;99.90;;;;;;5073975;28;20044;-84
2022/05/27 02:41:39;;;;;;;29.02;7.22;;;15.60;99.90;;;;;;5072449;28;20052;-84
2022/05/27 02:44:20;;;;;;;30.02;7.78;;;15.50;99.90;;;;;;5072623;28;20040;-85
2022/05/27 02:46:52;;;;;;;23.88;7.90;;;15.30;99.90;;;;;;5073436;28;20036;-83
2022/05/27 02:49:34;;;;;;;;;;;15.30;99.90;;;;;;5082102;28;20081;-84
2022/05/27 02:52:21;;;;;;;28.75;9.13;;;15.40;99.90;;;;;;5093956;28;19915;-83
2022/05/27 02:55:08;;;;;;;32.28;8.32;;;15.00;99.90;;;;;;5093935;28;20036;-83
2022/05/27 02:57:42;;;;;;;33.05;9.40;;;15.10;99.90;;;;;;5093779;28;20043;-83
2022/05/27 03:00:13;;;;;;;27.98;8.60;;;15.10;99.90;;;;;;5093745;28;20388;-84
2022/05/27 03:02:40;;;;;;;28.10;8.30;;;15.20;99.90;;;;;;5088821;28;20028;-82
2022/05/27 03:05:07;;;;;;;35.83;10.93;;;15.10;99.90;;;;;;5093487;28;20043;-82
2022/05/27 03:07:45;;;;;;;31.05;9.45;;;15.20;99.90;;;;;;5092382;28;20024;-82
2022/05/27 03:10:22;;;;;;;34.33;10.43;;;15.20;99.90;;;;;;5093097;28;20062;-82
2022/05/27 03:13:14;;;;;;;32.75;10.38;;;15.20;99.90;;;;;;5093454;28;20098;-81
2022/05/27 03:15:54;;;;;;;27.17;9.60;;;15.30;99.90;;;;;;5093043;28;20024;-83
2022/05/27 03:18:41;;;;;;;36.13;9.90;;;15.30;99.90;;;;;;5092739;28;20111;-83
2022/05/27 03:21:29;;;;;;;32.88;10.38;;;15.20;99.90;;;;;;5092002;28;20134;-82
2022/05/27 03:23:57;;;;;;;37.22;11.48;;;14.80;99.90;;;;;;5093361;28;20016;-82
2022/05/27 03:26:31;;;;;;;35.58;9.90;;;14.90;99.90;;;;;;5093513;28;20035;-82
2022/05/27 03:29:14;;;;;;;31.50;10.85;;;15.00;99.90;;;;;;5093229;28;20028;-81
2022/05/27 03:32:10;;;;;;;42.78;12.00;;;14.90;99.90;;;;;;5093074;28;20459;-83
2022/05/27 03:34:55;;;;;;;31.35;11.10;;;14.90;99.90;;;;;;5088707;28;20089;-82
2022/05/27 03:37:34;;;;;;;37.80;11.73;;;14.90;99.90;;;;;;5072956;28;20037;-83
2022/05/27 03:40:11;;;;;;;40.85;12.20;;;14.80;99.90;;;;;;5071527;28;20036;-83
2022/05/27 03:42:39;;;;;;;47.10;13.65;;;14.90;99.90;;;;;;5072914;28;20036;-83
2022/05/27 03:45:07;;;;;;;39.80;14.45;;;14.90;99.90;;;;;;5072679;28;20055;-84
2022/05/27 03:47:34;;;;;;;42.97;12.40;;;14.80;99.90;;;;;;5072982;28;20361;-85
2022/05/27 03:50:00;;;;;;;52.88;13.65;;;14.90;99.90;;;;;;5086104;28;20028;-83
2022/05/27 03:52:33;;;;;;;42.22;15.18;;;15.00;99.90;;;;;;5094037;28;20032;-86
2022/05/27 03:54:58;;;;;;;38.95;13.77;;;14.80;99.90;;;;;;5093244;28;20380;-86
2022/05/27 03:57:24;;;;;;;43.40;13.43;;;14.90;99.90;;;;;;5093114;28;20020;-85
2022/05/27 03:59:50;;;;;;;33.00;11.90;;;14.70;99.90;;;;;;5092437;28;20031;-84
2022/05/27 04:02:16;;;;;;;36.92;12.88;;;14.70;99.90;;;;;;5092963;28;20032;-83
2022/05/27 04:04:43;;;;;;;34.05;13.27;;;14.70;99.90;;;;;;5075556;28;20032;-84
2022/05/27 04:07:08;;;;;;;39.83;14.25;;;14.60;99.90;;;;;;5071891;28;20029;-84
2022/05/27 04:09:36;;;;;;;38.10;13.30;;;14.70;99.90;;;;;;5079272;28;20495;-83
2022/05/27 04:12:04;;;;;;;29.25;13.35;;;14.80;99.90;;;;;;5095530;28;20032;-83
2022/05/27 04:14:31;;;;;;;26.95;11.73;;;14.60;99.90;;;;;;5094876;28;20137;-85
2022/05/27 04:17:27;;;;;;;26.52;12.57;;;14.60;99.90;;;;;;5095234;28;20092;-84
2022/05/27 04:19:44;;;;;;;37.28;13.52;;;14.80;99.90;;;;;;5095642;28;20065;-85
2022/05/27 04:22:10;;;;;;;30.23;12.77;;;14.90;99.90;;;;;;5094796;28;20020;-85
2022/05/27 04:24:36;;;;;;;34.17;11.95;;;15.00;99.90;;;;;;5093787;28;20042;-85
2022/05/27 04:27:15;;;;;;;31.92;11.85;;;15.00;99.90;;;;;;5092196;28;20016;-86
2022/05/27 04:29:45;;;;;;;39.33;13.07;;;15.10;99.90;;;;;;5092421;28;20028;-83
2022/05/27 04:32:11;;;;;;;30.27;11.85;;;15.10;99.90;;;;;;5093068;28;20032;-83
2022/05/27 04:34:38;;;;;;;26.88;11.65;;;15.00;99.90;;;;;;5092805;28;20032;-78
2022/05/27 04:37:04;;;;;;;33.50;11.10;;;14.90;99.90;;;;;;5091843;28;20028;-81
2022/05/27 04:39:30;;;;;;;25.77;11.13;;;14.90;99.90;;;;;;5092368;28;20107;-79
2022/05/27 04:41:56;;;;;;;32.85;10.65;;;14.80;99.90;;;;;;5093209;28;20038;-80
2022/05/27 04:44:22;;;;;;;33.08;11.63;;;15.00;99.90;;;;;;5092793;28;20463;-79
2022/05/27 04:46:47;;;;;;;27.45;10.57;;;14.90;99.90;;;;;;5092859;28;20039;-79
2022/05/27 04:49:50;;;;;;;27.05;10.25;;;14.80;99.90;;;;;;5084199;28;20032;-78
2022/05/27 04:52:00;;;;;;;32.25;11.07;;;14.70;99.90;;;;;;5072999;28;20042;-80
2022/05/27 04:54:26;;;;;;;29.67;10.88;;;14.70;99.90;;;;;;5073095;28;20059;-83
2022/05/27 04:56:54;;;;;;;35.95;12.55;;;14.70;99.90;;;;;;5075976;28;20052;-83
2022/05/27 04:59:19;;;;;;;27.77;12.25;;;14.80;99.90;;;;;;5075930;28;20039;-85
2022/05/27 05:01:45;;;;;;;32.25;12.02;;;14.80;99.90;;;;;;5075761;28;20115;-78
2022/05/27 05:04:11;;;;;;;33.67;10.82;;;14.80;99.90;;;;;;5088712;28;20054;-77
2022/05/27 05:06:37;;;;;;;33.03;11.52;;;15.00;99.90;;;;;;5096222;28;20107;-80
2022/05/27 05:09:03;;;;;;;28.00;11.40;;;15.00;99.90;;;;;;5096425;28;20047;-79
2022/05/27 05:11:28;;;;;;;36.72;11.45;;;15.00;99.90;;;;;;5095685;28;20067;-80
2022/05/27 05:13:54;;;;;;;32.55;11.05;;;15.00;99.90;;;;;;5095893;28;20135;-75
2022/05/27 05:16:20;;;;;;;33.10;10.70;;;15.10;99.90;;;;;;5095298;28;20020;-85
2022/05/27 05:18:46;;;;;;;35.25;10.95;;;15.20;99.90;;;;;;5081008;28;20029;-85
2022/05/27 05:21:12;;;;;;;32.15;9.65;;;15.30;99.90;;;;;;5075278;28;20086;-79
2022/05/27 05:23:38;;;;;;;33.63;10.88;;;15.20;99.90;;;;;;5075582;28;20103;-82
2022/05/27 05:26:04;;;;;;;32.13;10.27;;;15.30;99.90;;;;;;5075458;28;20525;-82
2022/05/27 05:28:30;;;;;;;30.00;10.90;;;15.30;99.90;;;;;;5075357;28;20024;-75
2022/05/27 05:30:56;;;;;;;34.90;10.65;;;15.40;99.90;;;;;;5074996;28;20028;-76
2022/05/27 05:33:21;;;;;;;32.55;8.13;;;15.30;99.90;;;;;;5073928;28;20025;-76
2022/05/27 05:35:47;;;;;;;18.83;7.95;;;15.30;99.90;;;;;;5075080;28;20524;-79
2022/05/27 05:38:13;;;;;;;20.02;6.85;;;15.30;99.90;;;;;;5075283;28;20042;-79
2022/05/27 05:40:40;;;;;;;25.13;7.20;;;15.20;99.90;;;;;;5074992;28;20611;-78
2022/05/27 05:43:07;;;;;;;21.75;6.53;;;15.40;99.90;;;;;;5073769;28;20029;-80
2022/05/27 05:45:32;;;;;;;21.17;5.72;;;15.30;99.90;;;;;;5073787;28;20032;-78
2022/05/27 05:47:58;;;;;;;23.83;7.70;;;15.30;99.90;;;;;;5074931;28;20047;-78
2022/05/27 05:50:24;;;;;;;14.18;4.88;;;15.20;99.90;;;;;;5091571;28;20085;-79
2022/05/27 05:52:50;;;;;;;17.30;5.25;;;15.30;99.90;;;;;;5095307;28;20526;-80
2022/05/27 05:55:18;;;;;;;19.00;5.15;;;15.30;99.90;;;;;;5095223;28;20040;-79
2022/05/27 05:57:45;;;;;;;20.27;5.40;;;15.30;99.90;;;;;;5095275;28;20457;-80
2022/05/27 06:00:15;;;;;;;19.88;5.45;;;15.40;99.90;;;;;;5095266;28;20040;-77
2022/05/27 06:02:40;;;;;;;22.70;5.78;;;15.40;99.90;;;;;;5097983;28;20062;-83
2022/05/27 06:05:07;;;;;;;16.35;4.82;;;15.50;99.90;;;;;;5102598;28;20067;-81
2022/05/27 06:07:34;;;;;;;16.08;5.28;;;15.50;99.90;;;;;;5099648;28;20384;-81
2022/05/27 06:10:00;;;;;;;21.02;5.25;;;15.70;99.90;;;;;;5107400;28;20066;-85
2022/05/27 06:12:27;;;;;;;14.15;4.72;;;15.60;99.90;;;;;;5075648;28;20024;-81
2022/05/27 06:14:54;;;;;;;19.25;6.28;;;15.60;99.90;;;;;;5101181;28;20038;-78
2022/05/27 06:17:21;;;;;;;21.42;6.90;;;15.60;99.90;;;;;;5101563;28;20036;-77
2022/05/27 06:19:47;;;;;;;22.63;5.80;;;15.50;99.90;;;;;;5109630;28;20023;-81
2022/05/27 06:22:13;;;;;;;22.20;5.18;;;15.50;99.90;;;;;;5097445;28;20548;-82
2022/05/27 06:24:38;;;;;;;19.40;5.88;;;15.50;99.90;;;;;;5108153;28;20020;-79
2022/05/27 06:27:06;;;;;;;15.80;5.32;;;15.70;99.90;;;;;;5104249;28;20111;-83
2022/05/27 06:35:01;;;;;;;13.20;4.10;;;15.80;99.90;;;;;;5106810;28;20548;-83
2022/05/27 06:37:27;;;;;;;17.95;4.65;;;15.70;99.90;;;;;;5110554;28;20080;-82
2022/05/27 06:39:54;;;;;;;12.90;3.65;;;15.50;99.90;;;;;;5090135;28;20024;-87
2022/05/27 06:42:22;;;;;;;13.35;4.18;;;15.40;99.90;;;;;;5080845;28;20028;-84
2022/05/27 06:44:51;;;;;;;14.63;3.40;;;15.50;99.90;;;;;;5104637;28;20107;-83
2022/05/27 06:47:17;;;;;;;18.92;5.10;;;15.60;99.90;;;;;;5104924;28;20584;-83
2022/05/27 06:49:46;;;;;;;14.10;3.80;;;15.70;99.90;;;;;;5098191;28;20099;-79
2022/05/27 06:52:13;;;;;;;9.75;3.13;;;15.70;99.90;;;;;;5109682;28;20035;-79
2022/05/27 06:54:41;;;;;;;10.73;3.10;;;15.60;99.90;;;;;;5099190;28;20095;-78
2022/05/27 06:57:08;;;;;;;13.98;3.97;;;15.50;99.90;;;;;;5102923;28;20499;-81
2022/05/27 06:59:35;;;;;;;13.70;4.00;;;15.50;99.90;;;;;;5106985;28;20472;-79
2022/05/27 07:02:02;;;;;;;9.05;3.65;;;15.60;99.90;;;;;;5096118;28;20036;-82
2022/05/27 07:04:28;;;;;;;9.60;3.45;;;15.70;99.90;;;;;;5102322;28;20024;-79
2022/05/27 07:06:57;;;;;;;14.77;4.03;;;15.90;99.90;;;;;;5103835;28;20067;-79
2022/05/27 07:09:24;;;;;;;13.13;4.43;;;16.10;99.90;;;;;;5105149;28;20090;-81
2022/05/27 07:11:52;;;;;;;19.48;4.10;;;16.10;99.90;;;;;;5096770;28;20052;-79
2022/05/27 07:14:18;;;;;;;11.88;4.55;;;16.20;99.90;;;;;;5109150;28;20082;-79
2022/05/27 07:16:46;;;;;;;9.30;3.58;;;16.30;99.90;;;;;;5091515;28;20024;-78
2022/05/27 07:19:12;;;;;;;8.38;3.47;;;16.50;99.90;;;;;;5091933;28;20077;-80
2022/05/27 07:21:43;;;;;;;8.60;2.63;;;16.40;99.90;;;;;;5093194;28;20032;-80
2022/05/27 07:24:13;;;;;;;10.43;3.30;;;16.30;99.90;;;;;;5093213;28;20376;-79
2022/05/27 07:26:40;;;;;;;7.35;3.17;;;16.20;99.90;;;;;;5093037;28;20105;-82
2022/05/27 07:29:07;;;;;;;12.40;3.00;;;16.30;99.90;;;;;;5093211;28;20020;-80
2022/05/27 07:31:35;;;;;;;9.75;3.42;;;16.60;99.90;;;;;;5093256;28;20039;-82
2022/05/27 07:34:01;;;;;;;10.75;3.25;;;16.90;99.90;;;;;;5091649;28;20142;-81
2022/05/27 07:36:27;;;;;;;13.70;3.60;;;16.80;99.90;;;;;;5091934;28;20063;-83
2022/05/27 07:38:53;;;;;;;12.27;3.20;;;17.10;99.90;;;;;;5094011;28;20032;-81
2022/05/27 07:41:20;;;;;;;8.35;3.15;;;17.30;99.90;;;;;;5094329;28;20028;-82
2022/05/27 07:43:47;;;;;;;12.07;3.03;;;17.30;99.90;;;;;;5093126;28;20043;-82
2022/05/27 07:46:14;;;;;;;8.07;2.58;;;17.20;99.90;;;;;;5080775;28;20074;-81
2022/05/27 07:48:40;;;;;;;12.25;2.85;;;17.50;99.90;;;;;;5082995;28;20027;-84
2022/05/27 07:51:06;;;;;;;12.63;3.15;;;17.70;99.90;;;;;;5099891;28;20027;-82
2022/05/27 07:53:34;;;;;;;9.40;2.47;;;17.40;99.90;;;;;;5099596;28;20023;-81
2022/05/27 07:56:02;;;;;;;9.18;2.65;;;17.40;99.90;;;;;;5075339;28;20067;-81
2022/05/27 07:58:29;;;;;;;8.23;2.72;;;17.30;99.90;;;;;;5077660;28;20079;-82
2022/05/27 08:00:55;;;;;;;15.60;2.70;;;17.40;99.90;;;;;;5074388;28;20036;-84
2022/05/27 08:03:20;;;;;;;7.97;2.40;;;17.40;99.90;;;;;;5084743;28;20737;-80
2022/05/27 08:05:46;;;;;;;10.88;3.28;;;17.30;99.90;;;;;;5087491;28;20082;-77
2022/05/27 08:08:12;;;;;;;17.48;3.17;;;17.10;99.90;;;;;;5103607;28;20039;-75
2022/05/27 08:10:38;;;;;;;16.88;2.70;;;17.20;99.90;;;;;;5108843;28;20074;-76
2022/05/27 08:13:04;;;;;;;7.38;2.47;;;17.50;99.90;;;;;;5092886;28;20491;-75
2022/05/27 08:15:30;;;;;;;7.25;2.35;;;17.50;99.90;;;;;;5103526;28;20028;-76
2022/05/27 08:17:57;;;;;;;6.13;2.55;;;17.40;99.90;;;;;;5097703;28;20024;-74
2022/05/27 08:20:27;;;;;;;15.75;3.33;;;17.60;99.90;;;;;;5108601;28;20031;-81
2022/05/27 08:22:53;;;;;;;9.32;2.75;;;17.60;99.90;;;;;;5098080;28;20039;-79
2022/05/27 08:25:21;;;;;;;8.98;2.33;;;17.70;99.90;;;;;;5101953;28;20353;-80
2022/05/27 08:27:48;;;;;;;11.80;2.50;;;17.60;99.90;;;;;;5090532;28;20035;-80
2022/05/27 08:30:17;;;;;;;11.25;3.50;;;18.00;99.90;;;;;;5093563;28;20024;-79
2022/05/27 08:32:43;;;;;;;6.82;2.35;;;18.10;99.90;;;;;;5095745;28;20024;-82
2022/05/27 08:38:09;;;;;;;8.38;2.17;;;17.60;99.90;;;;;;5096297;28;20036;-80
2022/05/27 08:41:10;;;;;;;7.68;2.47;;;17.90;99.90;;;;;;5096245;28;20505;-80
2022/05/27 08:44:05;;;;;;;7.28;2.15;;;17.70;99.90;;;;;;5089026;28;20480;-81
2022/05/27 08:46:46;;;;;;;18.45;3.20;;;17.90;99.90;;;;;;5096273;28;20485;-81
2022/05/27 08:49:21;;;;;;;9.63;2.50;;;18.40;99.90;;;;;;5088943;28;20024;-77
2022/05/27 08:52:00;;;;;;;9.45;2.42;;;18.20;99.90;;;;;;5075997;28;20025;-81
2022/05/27 08:54:33;;;;;;;14.27;2.40;;;18.10;99.90;;;;;;5075417;28;20807;-82
2022/05/27 08:59:59;;;;;;;14.23;2.28;;;17.90;99.90;;;;;;5102566;28;20044;-82
2022/05/27 09:02:28;;;;;;;10.43;2.25;;;17.80;99.90;;;;;;5102965;27;20040;-82
2022/05/27 09:05:14;;;;;;;11.07;2.10;;;17.90;99.90;;;;;;5112001;28;20020;-82
2022/05/27 09:07:51;;;;;;;14.63;3.80;;;17.80;99.90;;;;;;5102400;28;20067;-82
2022/05/27 09:10:21;;;;;;;11.80;2.70;;;18.30;99.90;;;;;;5104023;28;20028;-82
2022/05/27 09:12:56;;;;;;;8.45;2.22;;;18.10;99.90;;;;;;5102916;28;20028;-80
2022/05/27 09:15:29;;;;;;;10.90;2.92;;;17.80;99.90;;;;;;5098922;27;20415;-79
2022/05/27 09:18:04;;;;;;;17.30;3.00;;;17.80;99.90;;;;;;5107022;28;20032;-83
2022/05/27 09:20:46;;;;;;;13.20;2.58;;;17.80;99.90;;;;;;5107692;28;20024;-82
2022/05/27 09:23:31;;;;;;;13.50;2.65;;;18.20;99.90;;;;;;5098874;28;20043;-82
2022/05/27 09:26:32;;;;;;;13.43;2.70;;;18.60;99.90;;;;;;5107991;28;20032;-83
2022/05/27 09:29:21;;;;;;;15.57;3.50;;;18.40;99.90;;;;;;5097677;28;20093;-81
2022/05/27 09:31:53;;;;;;;17.23;3.17;;;18.10;99.90;;;;;;5097440;27;20066;-78
2022/05/27 09:34:21;;;;;;;15.90;3.10;;;18.00;99.90;;;;;;5106931;28;20028;-77
2022/05/27 09:36:51;;;;;;;7.80;3.40;;;17.80;99.90;;;;;;5116367;28;20027;-77
2022/05/27 09:39:21;;;;;;;11.98;2.90;;;18.10;99.90;;;;;;5099192;28;20027;-77
2022/05/27 09:42:05;;;;;;;15.43;2.58;;;18.10;99.90;;;;;;5107437;28;20072;-80
2022/05/27 09:44:35;;;;;;;12.93;2.38;;;18.20;99.90;;;;;;5109171;28;20036;-78
2022/05/27 09:47:03;;;;;;;13.70;2.90;;;18.00;99.90;;;;;;5098162;28;20077;-77
2022/05/27 09:49:30;;;;;;;15.00;2.95;;;18.30;99.90;;;;;;5115811;28;20019;-77
2022/05/27 09:51:56;;;;;;;12.90;2.72;;;18.40;99.90;;;;;;5115887;28;20098;-79
2022/05/27 09:54:47;;;;;;;10.35;2.67;;;18.20;99.90;;;;;;5112978;28;20051;-78
2022/05/27 09:57:16;;;;;;;11.48;3.10;;;18.10;99.90;;;;;;5115577;28;20460;-78
2022/05/27 09:59:47;;;;;;;13.05;2.88;;;17.90;99.90;;;;;;5113605;28;20028;-79
2022/05/27 10:02:28;;;;;;;10.60;2.85;;;18.30;99.90;;;;;;5115010;28;20047;-78
2022/05/27 10:05:01;;;;;;;11.90;2.47;;;18.50;99.90;;;;;;5096429;28;20031;-79
2022/05/27 10:07:40;;;;;;;13.38;2.63;;;18.50;98.80;;;;;;5095358;28;20123;-78
2022/05/27 10:10:20;;;;;;;15.23;2.70;;;18.30;99.80;;;;;;5094881;28;20030;-77
2022/05/27 10:12:46;;;;;;;14.70;2.97;;;18.80;99.90;;;;;;5094957;28;20036;-81
2022/05/27 10:15:26;;;;;;;12.63;2.78;;;19.10;99.50;;;;;;5094819;28;20032;-80
2022/05/27 10:17:52;;;;;;;13.13;3.13;;;19.30;97.90;;;;;;5094523;28;20043;-79
2022/05/27 10:20:20;;;;;;;14.25;3.33;;;19.60;98.30;;;;;;5093556;28;20024;-77
2022/05/27 10:23:07;;;;;;;14.05;3.65;;;19.40;99.40;;;;;;5093570;28;20036;-76
2022/05/27 10:25:36;;;;;;;15.93;3.78;;;18.90;99.90;;;;;;5091638;28;20375;-76
2022/05/27 10:28:04;;;;;;;18.13;4.00;;;18.60;99.90;;;;;;5109875;28;20024;-77
2022/05/27 10:30:36;;;;;;;14.25;3.30;;;18.60;99.90;;;;;;5097257;28;20023;-77
2022/05/27 10:33:16;;;;;;;15.98;3.70;;;18.60;99.90;;;;;;5105125;28;20036;-77
2022/05/27 10:35:42;;;;;;;12.90;3.40;;;18.20;99.90;;;;;;5107592;28;20031;-74
2022/05/27 10:38:29;;;;;;;13.35;3.03;;;18.30;99.90;;;;;;5097990;28;20606;-76
2022/05/27 10:40:59;;;;;;;12.80;3.90;;;18.60;99.90;;;;;;5103922;28;20039;-73
2022/05/27 10:43:37;;;;;;;20.45;3.92;;;18.90;99.90;;;;;;5105774;28;20039;-76
2022/05/27 10:46:05;;;;;;;20.02;4.82;;;18.70;99.90;;;;;;5096616;28;20070;-76
2022/05/27 10:48:34;;;;;;;21.65;3.50;;;18.10;99.90;;;;;;5108684;28;20036;-76
2022/05/27 10:51:29;;;;;;;12.25;3.63;;;18.50;99.90;;;;;;5102148;28;20038;-76
2022/05/27 10:54:13;;;;;;;12.98;3.53;;;18.80;99.90;;;;;;5092831;28;20032;-76
2022/05/27 11:02:04;;;;;;;17.88;3.28;;;18.80;99.70;;;;;;5092004;28;20027;-76
2022/05/27 11:03:17;;;;;;;15.98;3.30;;;19.30;99.80;;;;;;5112187;28;20480;-76
2022/05/27 11:06:00;;;;;;;14.43;3.13;;;19.70;98.60;;;;;;5092639;28;20119;-75
2022/05/27 11:08:31;;;;;;;10.07;3.00;;;19.40;98.20;;;;;;5094180;28;20047;-76
2022/05/27 11:11:13;;;;;;;23.80;3.35;;;19.20;98.20;;;;;;5094471;28;20063;-76
2022/05/27 11:16:46;;;;;;;12.13;3.15;;;19.10;97.30;;;;;;5101120;28;20476;-76
2022/05/27 11:19:29;;;;;;;17.95;3.65;;;18.90;96.20;;;;;;5098217;28;20428;-75
2022/05/27 11:22:27;;;;;;;17.55;3.45;;;18.90;96.60;;;;;;5109670;28;20040;-76
2022/05/27 11:24:52;;;;;;;13.00;3.15;;;19.20;95.80;;;;;;5103179;28;20391;-75
2022/05/27 11:27:35;;;;;;;10.63;2.75;;;19.00;95.60;;;;;;5097691;28;20024;-75
2022/05/27 11:30:23;;;;;;;11.27;3.00;;;19.30;97.10;;;;;;5079629;28;20024;-75
2022/05/27 11:33:07;;;;;;;12.45;2.72;;;19.60;95.80;;;;;;5101182;28;20482;-76
2022/05/27 11:35:45;;;;;;;13.75;2.65;;;19.80;94.70;;;;;;5108167;28;20051;-76
2022/05/27 11:38:59;;;;;;;10.98;2.65;;;19.20;94.60;;;;;;5070578;28;20047;-76
2022/05/27 11:41:53;;;;;;;15.52;2.92;;;19.40;95.40;;;;;;5046593;28;20048;-76
2022/05/27 11:44:40;;;;;;;12.00;2.83;;;19.20;95.40;;;;;;5071423;28;20538;-75
2022/05/27 11:47:33;;;;;;;11.20;2.80;;;19.50;95.20;;;;;;5071713;28;20041;-76
2022/05/27 11:50:09;;;;;;;10.00;2.50;;;19.60;94.90;;;;;;5085614;28;20488;-76
2022/05/27 11:52:43;;;;;;;14.45;3.17;;;19.60;95.30;;;;;;5085931;28;20115;-76
2022/05/27 11:55:46;;;;;;;16.33;2.97;;;19.80;94.50;;;;;;5105953;28;20028;-75
2022/05/27 11:58:18;;;;;;;15.30;3.10;;;19.90;95.10;;;;;;5083260;28;20028;-76
2022/05/27 12:01:06;;;;;;;9.95;2.63;;;19.50;95.50;;;;;;5102339;28;20495;-76
2022/05/27 12:03:45;;;;;;;15.80;3.55;;;19.50;94.60;;;;;;5101910;28;20028;-76
2022/05/27 12:06:17;;;;;;;14.50;2.92;;;19.60;95.20;;;;;;5111257;28;20032;-76
2022/05/27 12:08:55;;;;;;;14.20;3.38;;;20.10;95.70;;;;;;5106610;28;20074;-76
2022/05/27 12:12:01;;;;;;;10.95;2.92;;;20.00;94.60;;;;;;5100289;28;20153;-76
2022/05/27 12:14:38;;;;;;;12.63;3.22;;;20.60;93.70;;;;;;5081570;28;20087;-76
2022/05/27 12:17:10;;;;;;;13.55;2.75;;;20.20;93.70;;;;;;5108133;28;20032;-76
2022/05/27 12:19:41;;;;;;;13.05;2.83;;;19.90;94.10;;;;;;5100411;28;20028;-76
2022/05/27 12:22:27;;;;;;;9.88;2.47;;;20.00;93.70;;;;;;5109203;28;20131;-76
2022/05/27 12:25:06;;;;;;;13.65;4.15;;;20.20;93.30;;;;;;5096139;28;20036;-76
2022/05/27 12:27:34;;;;;;;13.77;3.08;;;19.70;93.20;;;;;;5109898;28;20034;-76
2022/05/27 12:30:00;;;;;;;10.13;2.67;;;19.90;94.60;;;;;;5099988;28;20020;-76
2022/05/27 12:32:28;;;;;;;12.10;2.92;;;20.50;93.60;;;;;;5109120;28;20093;-76
2022/05/27 12:35:20;;;;;;;12.95;2.55;;;20.30;92.80;;;;;;5107657;28;20069;-76
2022/05/27 12:38:10;;;;;;;12.30;2.85;;;20.50;92.90;;;;;;5099700;28;20039;-76
2022/05/27 12:40:39;;;;;;;10.30;3.10;;;19.80;93.20;;;;;;5106556;28;20128;-75
2022/05/27 12:43:21;;;;;;;12.48;2.85;;;19.90;93.90;;;;;;5107886;28;20108;-76
2022/05/27 12:46:01;;;;;;;16.67;3.30;;;20.50;93.50;;;;;;5099383;28;20089;-76
2022/05/27 12:48:28;;;;;;;13.23;3.13;;;20.60;92.90;;;;;;5101078;28;20110;-76
2022/05/27 12:50:57;;;;;;;8.75;2.58;;;20.80;91.60;;;;;;5104136;28;20035;-76
2022/05/27 12:53:36;;;;;;;14.35;3.60;;;20.30;92.10;;;;;;5111703;28;20023;-76
2022/05/27 13:02:14;;;;;;;14.77;3.03;;;20.70;91.60;;;;;;5095903;28;20046;-76
2022/05/27 13:04:49;;;;;;;14.77;2.90;;;20.90;92.70;;;;;;5094817;28;20028;-77
2022/05/27 13:07:28;;;;;;;14.50;3.53;;;21.00;91.80;;;;;;5095281;28;20051;-76
2022/05/27 13:09:55;;;;;;;13.60;4.00;;;20.90;91.50;;;;;;5095484;28;20093;-76
2022/05/27 13:12:46;;;;;;;16.60;3.42;;;20.80;91.50;;;;;;5095968;28;20028;-76
2022/05/27 13:15:23;;;;;;;9.02;2.80;;;20.60;91.00;;;;;;5095182;28;20040;-76
2022/05/27 13:18:12;;;;;;;11.00;2.90;;;20.60;91.20;;;;;;5094613;28;20122;-76
2022/05/27 13:21:02;;;;;;;15.23;3.55;;;20.20;91.70;;;;;;5094743;28;20059;-76
2022/05/27 13:23:31;;;;;;;17.70;3.22;;;20.30;91.60;;;;;;5095822;28;20172;-76
2022/05/27 13:26:10;;;;;;;11.35;2.40;;;20.50;90.90;;;;;;5095054;28;20036;-76
2022/05/27 13:28:48;;;;;;;17.10;3.30;;;20.80;91.40;;;;;;5095680;28;20054;-76
2022/05/27 13:31:20;;;;;;;10.65;2.67;;;21.30;90.60;;;;;;5094097;28;20032;-76